sensor_id;sensor_type;location;lat;lon;timestamp;P1;durP1;ratioP1;P2;durP2;ratioP2
27013;SDS011;14556;52.222;4.510;2022-09-21T00:00:51;4.70;;;1.33;;
27013;SDS011;14556;52.222;4.510;2022-09-21T00:03:18;4.27;;;1.27;;
27013;SDS011;14556;52.222;4.510;2022-09-21T00:05:45;2.97;;;1.40;;
27013;SDS011;14556;52.222;4.510;2022-09-21T00:08:12;3.60;;;1.30;;
27013;SDS011;14556;52.222;4.510;2022-09-21T00:10:39;1.93;;;1.20;;
27013;SDS011;14556;52.222;4.510;2022-09-21T00:13:05;2.20;;;1.20;;
27013;SDS011;14556;52.222;4.510;2022-09-21T00:15:34;3.47;;;1.20;;
27013;SDS011;14556;52.222;4.510;2022-09-21T00:18:00;1.50;;;1.10;;
27013;SDS011;14556;52.222;4.510;2022-09-21T00:20:28;3.60;;;1.30;;
27013;SDS011;14556;52.222;4.510;2022-09-21T00:22:54;3.37;;;1.27;;
27013;SDS011;14556;52.222;4.510;2022-09-21T00:25:20;2.87;;;1.43;;
27013;SDS011;14556;52.222;4.510;2022-09-21T00:27:47;4.73;;;1.53;;
27013;SDS011;14556;52.222;4.510;2022-09-21T00:30:16;2.87;;;1.27;;
27013;SDS011;14556;52.222;4.510;2022-09-21T00:32:43;3.03;;;1.40;;
27013;SDS011;14556;52.222;4.510;2022-09-21T00:35:09;4.70;;;1.83;;
27013;SDS011;14556;52.222;4.510;2022-09-21T00:37:36;6.23;;;1.67;;
27013;SDS011;14556;52.222;4.510;2022-09-21T00:40:02;2.17;;;1.20;;
27013;SDS011;14556;52.222;4.510;2022-09-21T00:42:31;2.80;;;1.30;;
27013;SDS011;14556;52.222;4.510;2022-09-21T00:44:58;4.60;;;1.60;;
27013;SDS011;14556;52.222;4.510;2022-09-21T00:47:36;2.23;;;1.40;;
27013;SDS011;14556;52.222;4.510;2022-09-21T00:50:06;3.63;;;1.30;;
27013;SDS011;14556;52.222;4.510;2022-09-21T00:52:37;1.87;;;1.27;;
27013;SDS011;14556;52.222;4.510;2022-09-21T00:55:08;4.33;;;1.50;;
27013;SDS011;14556;52.222;4.510;2022-09-21T00:57:40;2.30;;;1.17;;
27013;SDS011;14556;52.222;4.510;2022-09-21T01:00:08;2.97;;;1.30;;
27013;SDS011;14556;52.222;4.510;2022-09-21T01:02:36;5.67;;;1.30;;
27013;SDS011;14556;52.222;4.510;2022-09-21T01:05:04;3.13;;;1.30;;
27013;SDS011;14556;52.222;4.510;2022-09-21T01:07:33;5.20;;;1.73;;
27013;SDS011;14556;52.222;4.510;2022-09-21T01:10:04;2.40;;;1.40;;
27013;SDS011;14556;52.222;4.510;2022-09-21T01:32:23;4.40;;;1.43;;
27013;SDS011;14556;52.222;4.510;2022-09-21T01:34:58;3.47;;;1.30;;
27013;SDS011;14556;52.222;4.510;2022-09-21T01:37:30;3.37;;;1.20;;
27013;SDS011;14556;52.222;4.510;2022-09-21T01:40:04;5.57;;;1.40;;
27013;SDS011;14556;52.222;4.510;2022-09-21T01:42:37;3.10;;;1.20;;
27013;SDS011;14556;52.222;4.510;2022-09-21T01:45:06;5.10;;;1.40;;
27013;SDS011;14556;52.222;4.510;2022-09-21T01:47:36;4.37;;;1.20;;
27013;SDS011;14556;52.222;4.510;2022-09-21T01:50:07;5.83;;;1.40;;
27013;SDS011;14556;52.222;4.510;2022-09-21T01:52:39;3.17;;;1.53;;
27013;SDS011;14556;52.222;4.510;2022-09-21T01:55:25;2.20;;;1.40;;
27013;SDS011;14556;52.222;4.510;2022-09-21T01:58:04;2.60;;;1.23;;
27013;SDS011;14556;52.222;4.510;2022-09-21T02:00:37;4.00;;;2.03;;
27013;SDS011;14556;52.222;4.510;2022-09-21T02:03:09;2.97;;;1.37;;
27013;SDS011;14556;52.222;4.510;2022-09-21T02:05:41;4.20;;;1.37;;
27013;SDS011;14556;52.222;4.510;2022-09-21T02:08:08;2.00;;;1.20;;
27013;SDS011;14556;52.222;4.510;2022-09-21T02:10:41;2.83;;;1.40;;
27013;SDS011;14556;52.222;4.510;2022-09-21T02:13:10;2.93;;;1.40;;
27013;SDS011;14556;52.222;4.510;2022-09-21T02:18:52;1.93;;;1.23;;
27013;SDS011;14556;52.222;4.510;2022-09-21T02:21:25;3.47;;;1.50;;
27013;SDS011;14556;52.222;4.510;2022-09-21T02:27:04;3.07;;;1.47;;
27013;SDS011;14556;52.222;4.510;2022-09-21T02:32:30;4.83;;;1.67;;
27013;SDS011;14556;52.222;4.510;2022-09-21T02:35:04;2.07;;;1.50;;
27013;SDS011;14556;52.222;4.510;2022-09-21T02:37:52;3.67;;;1.77;;
27013;SDS011;14556;52.222;4.510;2022-09-21T02:40:26;3.03;;;1.90;;
27013;SDS011;14556;52.222;4.510;2022-09-21T02:42:57;5.17;;;1.97;;
27013;SDS011;14556;52.222;4.510;2022-09-21T02:45:29;3.40;;;1.60;;
27013;SDS011;14556;52.222;4.510;2022-09-21T02:48:04;4.47;;;1.77;;
27013;SDS011;14556;52.222;4.510;2022-09-21T02:50:36;4.53;;;1.80;;
27013;SDS011;14556;52.222;4.510;2022-09-21T02:53:07;3.70;;;1.70;;
27013;SDS011;14556;52.222;4.510;2022-09-21T02:55:36;3.33;;;1.90;;
27013;SDS011;14556;52.222;4.510;2022-09-21T02:58:05;2.93;;;1.60;;
27013;SDS011;14556;52.222;4.510;2022-09-21T03:00:35;4.43;;;2.00;;
27013;SDS011;14556;52.222;4.510;2022-09-21T03:03:18;3.33;;;1.90;;
27013;SDS011;14556;52.222;4.510;2022-09-21T03:05:47;4.43;;;1.70;;
27013;SDS011;14556;52.222;4.510;2022-09-21T03:08:16;2.27;;;1.47;;
27013;SDS011;14556;52.222;4.510;2022-09-21T03:10:43;7.90;;;1.93;;
27013;SDS011;14556;52.222;4.510;2022-09-21T03:13:11;6.07;;;1.93;;
27013;SDS011;14556;52.222;4.510;2022-09-21T03:15:38;5.07;;;1.80;;
27013;SDS011;14556;52.222;4.510;2022-09-21T03:18:06;5.67;;;1.90;;
27013;SDS011;14556;52.222;4.510;2022-09-21T03:20:35;5.57;;;1.60;;
27013;SDS011;14556;52.222;4.510;2022-09-21T03:23:02;3.27;;;1.70;;
27013;SDS011;14556;52.222;4.510;2022-09-21T03:25:29;3.03;;;1.63;;
27013;SDS011;14556;52.222;4.510;2022-09-21T03:27:56;4.50;;;2.00;;
27013;SDS011;14556;52.222;4.510;2022-09-21T03:30:24;4.23;;;1.90;;
27013;SDS011;14556;52.222;4.510;2022-09-21T03:32:51;4.10;;;1.90;;
27013;SDS011;14556;52.222;4.510;2022-09-21T03:35:20;5.30;;;2.17;;
27013;SDS011;14556;52.222;4.510;2022-09-21T03:37:47;3.67;;;1.60;;
27013;SDS011;14556;52.222;4.510;2022-09-21T03:40:15;4.40;;;1.87;;
27013;SDS011;14556;52.222;4.510;2022-09-21T03:42:43;3.00;;;1.80;;
27013;SDS011;14556;52.222;4.510;2022-09-21T03:45:09;3.60;;;1.80;;
27013;SDS011;14556;52.222;4.510;2022-09-21T03:47:37;5.23;;;1.90;;
27013;SDS011;14556;52.222;4.510;2022-09-21T03:50:05;6.33;;;1.83;;
27013;SDS011;14556;52.222;4.510;2022-09-21T03:52:35;2.83;;;1.77;;
27013;SDS011;14556;52.222;4.510;2022-09-21T03:55:03;3.77;;;1.80;;
27013;SDS011;14556;52.222;4.510;2022-09-21T03:57:32;4.67;;;1.87;;
27013;SDS011;14556;52.222;4.510;2022-09-21T03:59:59;2.30;;;1.53;;
27013;SDS011;14556;52.222;4.510;2022-09-21T04:02:28;4.07;;;1.83;;
27013;SDS011;14556;52.222;4.510;2022-09-21T04:04:55;4.67;;;1.93;;
27013;SDS011;14556;52.222;4.510;2022-09-21T04:07:21;2.70;;;1.83;;
27013;SDS011;14556;52.222;4.510;2022-09-21T04:09:48;4.17;;;1.67;;
27013;SDS011;14556;52.222;4.510;2022-09-21T04:12:14;3.67;;;1.90;;
27013;SDS011;14556;52.222;4.510;2022-09-21T04:14:41;6.57;;;2.17;;
27013;SDS011;14556;52.222;4.510;2022-09-21T04:17:07;6.03;;;1.70;;
27013;SDS011;14556;52.222;4.510;2022-09-21T04:19:34;4.00;;;1.80;;
27013;SDS011;14556;52.222;4.510;2022-09-21T04:22:00;2.67;;;1.80;;
27013;SDS011;14556;52.222;4.510;2022-09-21T04:24:26;4.70;;;2.03;;
27013;SDS011;14556;52.222;4.510;2022-09-21T04:26:53;2.83;;;1.87;;
27013;SDS011;14556;52.222;4.510;2022-09-21T04:29:19;5.40;;;1.60;;
27013;SDS011;14556;52.222;4.510;2022-09-21T04:31:46;3.20;;;1.73;;
27013;SDS011;14556;52.222;4.510;2022-09-21T04:34:13;3.47;;;2.07;;
27013;SDS011;14556;52.222;4.510;2022-09-21T04:36:39;3.30;;;2.27;;
27013;SDS011;14556;52.222;4.510;2022-09-21T04:39:06;4.90;;;2.27;;
27013;SDS011;14556;52.222;4.510;2022-09-21T04:41:32;3.30;;;1.70;;
27013;SDS011;14556;52.222;4.510;2022-09-21T04:43:58;5.27;;;1.83;;
27013;SDS011;14556;52.222;4.510;2022-09-21T04:46:25;5.97;;;1.73;;
27013;SDS011;14556;52.222;4.510;2022-09-21T04:48:51;3.87;;;1.77;;
27013;SDS011;14556;52.222;4.510;2022-09-21T04:51:18;3.60;;;2.20;;
27013;SDS011;14556;52.222;4.510;2022-09-21T04:53:44;3.57;;;2.00;;
27013;SDS011;14556;52.222;4.510;2022-09-21T04:56:12;3.40;;;2.20;;
27013;SDS011;14556;52.222;4.510;2022-09-21T04:58:40;3.70;;;1.90;;
27013;SDS011;14556;52.222;4.510;2022-09-21T05:01:08;4.33;;;2.17;;
27013;SDS011;14556;52.222;4.510;2022-09-21T05:03:35;3.77;;;1.97;;
27013;SDS011;14556;52.222;4.510;2022-09-21T05:06:01;4.57;;;2.30;;
27013;SDS011;14556;52.222;4.510;2022-09-21T05:08:29;2.80;;;2.00;;
27013;SDS011;14556;52.222;4.510;2022-09-21T05:11:15;3.40;;;2.37;;
27013;SDS011;14556;52.222;4.510;2022-09-21T05:13:46;5.03;;;2.60;;
27013;SDS011;14556;52.222;4.510;2022-09-21T05:16:12;4.67;;;2.17;;
27013;SDS011;14556;52.222;4.510;2022-09-21T05:18:40;7.20;;;2.77;;
27013;SDS011;14556;52.222;4.510;2022-09-21T05:21:06;4.60;;;2.77;;
27013;SDS011;14556;52.222;4.510;2022-09-21T05:23:32;3.40;;;2.40;;
27013;SDS011;14556;52.222;4.510;2022-09-21T05:25:59;5.70;;;2.40;;
27013;SDS011;14556;52.222;4.510;2022-09-21T05:28:26;5.77;;;2.73;;
27013;SDS011;14556;52.222;4.510;2022-09-21T05:30:56;6.53;;;2.67;;
27013;SDS011;14556;52.222;4.510;2022-09-21T05:33:53;6.17;;;3.10;;
27013;SDS011;14556;52.222;4.510;2022-09-21T05:36:38;3.83;;;2.70;;
27013;SDS011;14556;52.222;4.510;2022-09-21T05:39:13;4.80;;;2.97;;
27013;SDS011;14556;52.222;4.510;2022-09-21T05:41:40;4.43;;;2.77;;
27013;SDS011;14556;52.222;4.510;2022-09-21T05:44:09;3.80;;;2.63;;
27013;SDS011;14556;52.222;4.510;2022-09-21T05:46:42;7.03;;;2.77;;
27013;SDS011;14556;52.222;4.510;2022-09-21T05:49:21;6.20;;;3.10;;
27013;SDS011;14556;52.222;4.510;2022-09-21T05:57:40;5.17;;;3.33;;
27013;SDS011;14556;52.222;4.510;2022-09-21T06:00:14;5.60;;;3.73;;
27013;SDS011;14556;52.222;4.510;2022-09-21T06:05:43;6.10;;;3.80;;
27013;SDS011;14556;52.222;4.510;2022-09-21T06:08:09;5.80;;;3.73;;
27013;SDS011;14556;52.222;4.510;2022-09-21T06:10:36;7.97;;;3.77;;
27013;SDS011;14556;52.222;4.510;2022-09-21T06:13:02;6.47;;;4.00;;
27013;SDS011;14556;52.222;4.510;2022-09-21T06:15:29;6.63;;;3.73;;
27013;SDS011;14556;52.222;4.510;2022-09-21T06:17:56;6.47;;;3.83;;
27013;SDS011;14556;52.222;4.510;2022-09-21T06:20:23;13.20;;;4.57;;
27013;SDS011;14556;52.222;4.510;2022-09-21T06:22:50;5.43;;;4.07;;
27013;SDS011;14556;52.222;4.510;2022-09-21T06:25:16;5.40;;;4.10;;
27013;SDS011;14556;52.222;4.510;2022-09-21T06:27:45;10.07;;;4.63;;
27013;SDS011;14556;52.222;4.510;2022-09-21T06:30:11;8.10;;;4.47;;
27013;SDS011;14556;52.222;4.510;2022-09-21T06:32:38;6.33;;;4.40;;
27013;SDS011;14556;52.222;4.510;2022-09-21T06:35:04;12.30;;;4.50;;
27013;SDS011;14556;52.222;4.510;2022-09-21T06:37:31;8.83;;;4.27;;
27013;SDS011;14556;52.222;4.510;2022-09-21T06:39:58;9.77;;;4.07;;
27013;SDS011;14556;52.222;4.510;2022-09-21T06:42:25;6.67;;;4.40;;
27013;SDS011;14556;52.222;4.510;2022-09-21T06:44:52;7.93;;;3.57;;
27013;SDS011;14556;52.222;4.510;2022-09-21T06:47:18;5.63;;;3.10;;
27013;SDS011;14556;52.222;4.510;2022-09-21T06:49:45;6.00;;;3.00;;
27013;SDS011;14556;52.222;4.510;2022-09-21T06:52:11;5.10;;;3.00;;
27013;SDS011;14556;52.222;4.510;2022-09-21T06:54:38;4.73;;;2.83;;
27013;SDS011;14556;52.222;4.510;2022-09-21T06:57:06;7.60;;;3.13;;
27013;SDS011;14556;52.222;4.510;2022-09-21T06:59:32;6.80;;;2.73;;
27013;SDS011;14556;52.222;4.510;2022-09-21T07:01:59;7.03;;;2.87;;
27013;SDS011;14556;52.222;4.510;2022-09-21T07:04:25;4.93;;;2.83;;
27013;SDS011;14556;52.222;4.510;2022-09-21T07:06:54;5.87;;;2.87;;
27013;SDS011;14556;52.222;4.510;2022-09-21T07:09:20;6.23;;;3.50;;
27013;SDS011;14556;52.222;4.510;2022-09-21T07:12:07;4.97;;;2.40;;
27013;SDS011;14556;52.222;4.510;2022-09-21T07:14:33;6.30;;;3.20;;
27013;SDS011;14556;52.222;4.510;2022-09-21T07:17:00;6.23;;;2.80;;
27013;SDS011;14556;52.222;4.510;2022-09-21T07:19:27;6.17;;;2.73;;
27013;SDS011;14556;52.222;4.510;2022-09-21T07:21:53;7.13;;;2.63;;
27013;SDS011;14556;52.222;4.510;2022-09-21T07:24:20;2.57;;;2.00;;
27013;SDS011;14556;52.222;4.510;2022-09-21T07:26:47;4.43;;;2.30;;
27013;SDS011;14556;52.222;4.510;2022-09-21T07:29:14;5.20;;;2.77;;
27013;SDS011;14556;52.222;4.510;2022-09-21T07:31:43;3.60;;;2.10;;
27013;SDS011;14556;52.222;4.510;2022-09-21T07:34:10;5.57;;;2.23;;
27013;SDS011;14556;52.222;4.510;2022-09-21T07:36:37;3.97;;;1.90;;
27013;SDS011;14556;52.222;4.510;2022-09-21T07:39:03;4.23;;;1.90;;
27013;SDS011;14556;52.222;4.510;2022-09-21T07:41:30;5.60;;;2.13;;
27013;SDS011;14556;52.222;4.510;2022-09-21T07:43:56;3.73;;;2.00;;
27013;SDS011;14556;52.222;4.510;2022-09-21T07:46:23;6.63;;;1.97;;
27013;SDS011;14556;52.222;4.510;2022-09-21T07:48:52;3.30;;;2.57;;
27013;SDS011;14556;52.222;4.510;2022-09-21T07:51:22;4.33;;;1.80;;
27013;SDS011;14556;52.222;4.510;2022-09-21T07:53:53;5.33;;;2.40;;
27013;SDS011;14556;52.222;4.510;2022-09-21T07:56:21;4.27;;;1.90;;
27013;SDS011;14556;52.222;4.510;2022-09-21T07:58:48;5.83;;;2.17;;
27013;SDS011;14556;52.222;4.510;2022-09-21T08:01:37;3.27;;;2.30;;
27013;SDS011;14556;52.222;4.510;2022-09-21T08:04:05;4.30;;;2.60;;
27013;SDS011;14556;52.222;4.510;2022-09-21T08:06:35;5.43;;;2.70;;
27013;SDS011;14556;52.222;4.510;2022-09-21T08:09:05;6.30;;;2.80;;
27013;SDS011;14556;52.222;4.510;2022-09-21T08:11:31;3.13;;;2.10;;
27013;SDS011;14556;52.222;4.510;2022-09-21T08:13:59;4.73;;;2.63;;
27013;SDS011;14556;52.222;4.510;2022-09-21T08:16:27;3.97;;;2.23;;
27013;SDS011;14556;52.222;4.510;2022-09-21T08:18:55;5.37;;;2.63;;
27013;SDS011;14556;52.222;4.510;2022-09-21T08:21:22;5.23;;;3.03;;
27013;SDS011;14556;52.222;4.510;2022-09-21T08:23:48;6.43;;;1.93;;
27013;SDS011;14556;52.222;4.510;2022-09-21T08:26:16;5.03;;;1.90;;
27013;SDS011;14556;52.222;4.510;2022-09-21T08:28:45;6.90;;;2.83;;
27013;SDS011;14556;52.222;4.510;2022-09-21T08:31:17;6.57;;;3.30;;
27013;SDS011;14556;52.222;4.510;2022-09-21T08:33:46;6.73;;;2.87;;
27013;SDS011;14556;52.222;4.510;2022-09-21T08:36:13;11.60;;;4.27;;
27013;SDS011;14556;52.222;4.510;2022-09-21T08:38:39;7.10;;;2.30;;
27013;SDS011;14556;52.222;4.510;2022-09-21T08:41:50;4.30;;;1.83;;
27013;SDS011;14556;52.222;4.510;2022-09-21T08:44:02;3.70;;;1.63;;
27013;SDS011;14556;52.222;4.510;2022-09-21T08:46:38;2.70;;;1.33;;
27013;SDS011;14556;52.222;4.510;2022-09-21T08:49:10;4.47;;;1.40;;
27013;SDS011;14556;52.222;4.510;2022-09-21T08:51:48;6.97;;;1.97;;
27013;SDS011;14556;52.222;4.510;2022-09-21T08:54:20;5.73;;;1.63;;
27013;SDS011;14556;52.222;4.510;2022-09-21T08:56:52;3.40;;;1.30;;
27013;SDS011;14556;52.222;4.510;2022-09-21T08:59:30;2.97;;;1.30;;
27013;SDS011;14556;52.222;4.510;2022-09-21T09:02:00;3.43;;;0.93;;
27013;SDS011;14556;52.222;4.510;2022-09-21T09:04:52;5.87;;;0.80;;
27013;SDS011;14556;52.222;4.510;2022-09-21T09:10:37;2.47;;;0.53;;
27013;SDS011;14556;52.222;4.510;2022-09-21T09:19:22;2.77;;;0.87;;
27013;SDS011;14556;52.222;4.510;2022-09-21T09:21:49;2.00;;;0.80;;
27013;SDS011;14556;52.222;4.510;2022-09-21T09:27:21;4.90;;;0.60;;
27013;SDS011;14556;52.222;4.510;2022-09-21T09:29:54;3.93;;;0.67;;
27013;SDS011;14556;52.222;4.510;2022-09-21T09:32:39;1.93;;;0.77;;
27013;SDS011;14556;52.222;4.510;2022-09-21T09:35:23;1.53;;;0.50;;
27013;SDS011;14556;52.222;4.510;2022-09-21T09:38:01;1.13;;;0.50;;
27013;SDS011;14556;52.222;4.510;2022-09-21T09:40:42;1.60;;;0.40;;
27013;SDS011;14556;52.222;4.510;2022-09-21T09:46:13;1.17;;;0.40;;
27013;SDS011;14556;52.222;4.510;2022-09-21T09:49:06;3.33;;;0.70;;
27013;SDS011;14556;52.222;4.510;2022-09-21T09:51:32;2.60;;;0.60;;
27013;SDS011;14556;52.222;4.510;2022-09-21T09:54:01;1.03;;;0.37;;
27013;SDS011;14556;52.222;4.510;2022-09-21T09:56:34;2.83;;;0.50;;
27013;SDS011;14556;52.222;4.510;2022-09-21T09:59:02;2.57;;;0.63;;
27013;SDS011;14556;52.222;4.510;2022-09-21T10:01:41;3.27;;;0.90;;
27013;SDS011;14556;52.222;4.510;2022-09-21T10:04:16;3.87;;;0.40;;
27013;SDS011;14556;52.222;4.510;2022-09-21T10:06:43;2.17;;;0.80;;
27013;SDS011;14556;52.222;4.510;2022-09-21T10:09:25;1.90;;;0.47;;
27013;SDS011;14556;52.222;4.510;2022-09-21T10:11:54;1.33;;;0.57;;
27013;SDS011;14556;52.222;4.510;2022-09-21T10:14:23;2.80;;;1.10;;
27013;SDS011;14556;52.222;4.510;2022-09-21T10:16:52;2.13;;;0.50;;
27013;SDS011;14556;52.222;4.510;2022-09-21T10:19:22;2.13;;;0.60;;
27013;SDS011;14556;52.222;4.510;2022-09-21T10:21:55;1.53;;;0.53;;
27013;SDS011;14556;52.222;4.510;2022-09-21T10:24:36;1.53;;;0.60;;
27013;SDS011;14556;52.222;4.510;2022-09-21T10:27:12;3.67;;;0.50;;
27013;SDS011;14556;52.222;4.510;2022-09-21T10:29:41;6.50;;;0.90;;
27013;SDS011;14556;52.222;4.510;2022-09-21T10:34:40;3.80;;;0.93;;
27013;SDS011;14556;52.222;4.510;2022-09-21T10:37:27;1.00;;;0.60;;
27013;SDS011;14556;52.222;4.510;2022-09-21T10:40:03;1.70;;;0.50;;
27013;SDS011;14556;52.222;4.510;2022-09-21T10:42:48;3.83;;;0.90;;
27013;SDS011;14556;52.222;4.510;2022-09-21T10:45:17;2.53;;;0.53;;
27013;SDS011;14556;52.222;4.510;2022-09-21T10:47:53;6.03;;;1.33;;
27013;SDS011;14556;52.222;4.510;2022-09-21T10:52:59;3.00;;;0.70;;
27013;SDS011;14556;52.222;4.510;2022-09-21T10:55:26;3.00;;;0.47;;
27013;SDS011;14556;52.222;4.510;2022-09-21T10:57:55;3.77;;;0.80;;
27013;SDS011;14556;52.222;4.510;2022-09-21T11:02:50;4.73;;;0.97;;
27013;SDS011;14556;52.222;4.510;2022-09-21T11:05:31;3.47;;;0.73;;
27013;SDS011;14556;52.222;4.510;2022-09-21T11:08:12;6.43;;;1.20;;
27013;SDS011;14556;52.222;4.510;2022-09-21T11:10:45;0.90;;;0.70;;
27013;SDS011;14556;52.222;4.510;2022-09-21T11:13:20;2.70;;;1.13;;
27013;SDS011;14556;52.222;4.510;2022-09-21T11:16:14;7.03;;;0.83;;
27013;SDS011;14556;52.222;4.510;2022-09-21T11:19:07;1.63;;;0.50;;
27013;SDS011;14556;52.222;4.510;2022-09-21T11:21:50;4.53;;;1.20;;
27013;SDS011;14556;52.222;4.510;2022-09-21T11:27:16;1.50;;;0.50;;
27013;SDS011;14556;52.222;4.510;2022-09-21T11:29:55;2.47;;;0.97;;
27013;SDS011;14556;52.222;4.510;2022-09-21T11:38:05;2.13;;;0.70;;
27013;SDS011;14556;52.222;4.510;2022-09-21T11:40:47;3.63;;;0.67;;
27013;SDS011;14556;52.222;4.510;2022-09-21T11:48:26;2.63;;;0.70;;
27013;SDS011;14556;52.222;4.510;2022-09-21T11:56:52;3.87;;;0.50;;
27013;SDS011;14556;52.222;4.510;2022-09-21T11:59:42;1.70;;;0.60;;
27013;SDS011;14556;52.222;4.510;2022-09-21T12:02:32;2.37;;;0.67;;
27013;SDS011;14556;52.222;4.510;2022-09-21T12:05:20;3.73;;;0.47;;
27013;SDS011;14556;52.222;4.510;2022-09-21T12:13:17;2.80;;;0.60;;
27013;SDS011;14556;52.222;4.510;2022-09-21T12:16:03;4.67;;;0.57;;
27013;SDS011;14556;52.222;4.510;2022-09-21T12:19:06;1.80;;;0.40;;
27013;SDS011;14556;52.222;4.510;2022-09-21T12:21:30;1.70;;;0.53;;
27013;SDS011;14556;52.222;4.510;2022-09-21T12:24:11;0.93;;;0.47;;
27013;SDS011;14556;52.222;4.510;2022-09-21T12:26:42;2.67;;;0.50;;
27013;SDS011;14556;52.222;4.510;2022-09-21T12:29:18;2.27;;;0.50;;
27013;SDS011;14556;52.222;4.510;2022-09-21T12:32:04;1.90;;;0.57;;
27013;SDS011;14556;52.222;4.510;2022-09-21T12:34:45;3.70;;;0.63;;
27013;SDS011;14556;52.222;4.510;2022-09-21T12:37:21;2.70;;;0.40;;
27013;SDS011;14556;52.222;4.510;2022-09-21T12:40:08;0.67;;;0.60;;
27013;SDS011;14556;52.222;4.510;2022-09-21T12:42:48;1.93;;;0.50;;
27013;SDS011;14556;52.222;4.510;2022-09-21T12:47:54;4.27;;;0.57;;
27013;SDS011;14556;52.222;4.510;2022-09-21T12:53:07;1.77;;;0.60;;
27013;SDS011;14556;52.222;4.510;2022-09-21T12:55:54;4.83;;;0.73;;
27013;SDS011;14556;52.222;4.510;2022-09-21T13:01:24;1.90;;;0.67;;
27013;SDS011;14556;52.222;4.510;2022-09-21T13:06:56;1.67;;;0.53;;
27013;SDS011;14556;52.222;4.510;2022-09-21T13:09:41;2.67;;;0.73;;
27013;SDS011;14556;52.222;4.510;2022-09-21T13:12:13;3.13;;;0.70;;
27013;SDS011;14556;52.222;4.510;2022-09-21T13:14:45;2.23;;;0.63;;
27013;SDS011;14556;52.222;4.510;2022-09-21T13:17:20;3.73;;;0.60;;
27013;SDS011;14556;52.222;4.510;2022-09-21T13:19:54;3.03;;;0.60;;
27013;SDS011;14556;52.222;4.510;2022-09-21T13:22:28;2.93;;;0.60;;
27013;SDS011;14556;52.222;4.510;2022-09-21T13:28:15;2.20;;;0.70;;
27013;SDS011;14556;52.222;4.510;2022-09-21T13:30:45;1.40;;;0.50;;
27013;SDS011;14556;52.222;4.510;2022-09-21T13:41:00;4.60;;;0.70;;
27013;SDS011;14556;52.222;4.510;2022-09-21T13:44:20;2.47;;;0.50;;
27013;SDS011;14556;52.222;4.510;2022-09-21T13:46:53;1.07;;;0.60;;
27013;SDS011;14556;52.222;4.510;2022-09-21T13:49:31;1.80;;;0.50;;
27013;SDS011;14556;52.222;4.510;2022-09-21T13:52:23;2.63;;;0.70;;
27013;SDS011;14556;52.222;4.510;2022-09-21T13:54:57;1.77;;;0.73;;
27013;SDS011;14556;52.222;4.510;2022-09-21T13:57:31;4.90;;;0.60;;
27013;SDS011;14556;52.222;4.510;2022-09-21T14:10:38;1.23;;;0.50;;
27013;SDS011;14556;52.222;4.510;2022-09-21T14:13:23;1.87;;;0.50;;
27013;SDS011;14556;52.222;4.510;2022-09-21T14:16:24;3.23;;;0.70;;
27013;SDS011;14556;52.222;4.510;2022-09-21T14:19:03;2.37;;;0.80;;
27013;SDS011;14556;52.222;4.510;2022-09-21T14:32:27;2.13;;;0.90;;
27013;SDS011;14556;52.222;4.510;2022-09-21T14:35:04;2.60;;;0.63;;
27013;SDS011;14556;52.222;4.510;2022-09-21T14:37:38;1.83;;;0.70;;
27013;SDS011;14556;52.222;4.510;2022-09-21T14:42:46;3.73;;;1.90;;
27013;SDS011;14556;52.222;4.510;2022-09-21T14:45:16;4.00;;;1.70;;
27013;SDS011;14556;52.222;4.510;2022-09-21T14:47:55;5.83;;;1.00;;
27013;SDS011;14556;52.222;4.510;2022-09-21T14:50:46;1.77;;;0.97;;
27013;SDS011;14556;52.222;4.510;2022-09-21T14:53:30;4.63;;;1.50;;
27013;SDS011;14556;52.222;4.510;2022-09-21T14:59:13;2.50;;;0.60;;
27013;SDS011;14556;52.222;4.510;2022-09-21T15:02:00;3.67;;;0.70;;
27013;SDS011;14556;52.222;4.510;2022-09-21T15:11:14;1.87;;;0.60;;
27013;SDS011;14556;52.222;4.510;2022-09-21T15:16:55;3.53;;;0.70;;
27013;SDS011;14556;52.222;4.510;2022-09-21T15:19:28;2.13;;;0.70;;
27013;SDS011;14556;52.222;4.510;2022-09-21T15:22:17;1.90;;;0.70;;
27013;SDS011;14556;52.222;4.510;2022-09-21T15:24:56;2.67;;;0.50;;
27013;SDS011;14556;52.222;4.510;2022-09-21T15:27:25;2.17;;;0.70;;
27013;SDS011;14556;52.222;4.510;2022-09-21T15:29:58;3.30;;;1.00;;
27013;SDS011;14556;52.222;4.510;2022-09-21T15:35:10;3.13;;;0.70;;
27013;SDS011;14556;52.222;4.510;2022-09-21T15:37:43;3.47;;;0.90;;
27013;SDS011;14556;52.222;4.510;2022-09-21T15:40:15;5.07;;;0.63;;
27013;SDS011;14556;52.222;4.510;2022-09-21T15:43:05;3.63;;;0.97;;
27013;SDS011;14556;52.222;4.510;2022-09-21T15:45:49;1.17;;;0.77;;
27013;SDS011;14556;52.222;4.510;2022-09-21T15:48:17;2.77;;;0.70;;
27013;SDS011;14556;52.222;4.510;2022-09-21T15:50:46;1.97;;;0.90;;
27013;SDS011;14556;52.222;4.510;2022-09-21T15:53:20;5.50;;;1.27;;
27013;SDS011;14556;52.222;4.510;2022-09-21T15:55:50;3.17;;;1.27;;
27013;SDS011;14556;52.222;4.510;2022-09-21T15:58:30;3.20;;;0.60;;
27013;SDS011;14556;52.222;4.510;2022-09-21T16:01:07;2.53;;;0.70;;
27013;SDS011;14556;52.222;4.510;2022-09-21T16:03:36;4.07;;;0.83;;
27013;SDS011;14556;52.222;4.510;2022-09-21T16:08:46;2.63;;;0.57;;
27013;SDS011;14556;52.222;4.510;2022-09-21T16:11:17;3.17;;;0.40;;
27013;SDS011;14556;52.222;4.510;2022-09-21T16:14:24;2.93;;;0.57;;
27013;SDS011;14556;52.222;4.510;2022-09-21T16:22:23;7.20;;;2.23;;
27013;SDS011;14556;52.222;4.510;2022-09-21T16:24:58;9.97;;;3.10;;
27013;SDS011;14556;52.222;4.510;2022-09-21T16:27:27;10.20;;;4.17;;
27013;SDS011;14556;52.222;4.510;2022-09-21T16:29:55;4.60;;;1.63;;
27013;SDS011;14556;52.222;4.510;2022-09-21T16:34:52;2.27;;;0.80;;
27013;SDS011;14556;52.222;4.510;2022-09-21T16:37:57;4.20;;;0.73;;
27013;SDS011;14556;52.222;4.510;2022-09-21T16:40:27;3.10;;;0.80;;
27013;SDS011;14556;52.222;4.510;2022-09-21T16:42:54;4.27;;;1.60;;
27013;SDS011;14556;52.222;4.510;2022-09-21T16:45:23;1.77;;;0.63;;
27013;SDS011;14556;52.222;4.510;2022-09-21T16:47:52;2.27;;;0.60;;
27013;SDS011;14556;52.222;4.510;2022-09-21T16:50:19;1.43;;;0.60;;
27013;SDS011;14556;52.222;4.510;2022-09-21T16:52:45;3.93;;;0.73;;
27013;SDS011;14556;52.222;4.510;2022-09-21T16:55:12;2.80;;;0.80;;
27013;SDS011;14556;52.222;4.510;2022-09-21T16:57:40;3.80;;;0.80;;
27013;SDS011;14556;52.222;4.510;2022-09-21T17:00:11;3.20;;;1.07;;
27013;SDS011;14556;52.222;4.510;2022-09-21T17:02:39;3.57;;;0.90;;
27013;SDS011;14556;52.222;4.510;2022-09-21T17:05:08;3.63;;;0.77;;
27013;SDS011;14556;52.222;4.510;2022-09-21T17:07:34;7.33;;;0.90;;
27013;SDS011;14556;52.222;4.510;2022-09-21T17:10:07;3.70;;;0.80;;
27013;SDS011;14556;52.222;4.510;2022-09-21T17:12:39;3.07;;;0.70;;
27013;SDS011;14556;52.222;4.510;2022-09-21T17:15:07;3.17;;;0.70;;
27013;SDS011;14556;52.222;4.510;2022-09-21T17:17:37;2.50;;;0.80;;
27013;SDS011;14556;52.222;4.510;2022-09-21T17:20:15;2.87;;;0.60;;
27013;SDS011;14556;52.222;4.510;2022-09-21T17:22:59;4.53;;;0.70;;
27013;SDS011;14556;52.222;4.510;2022-09-21T17:25:29;2.53;;;0.80;;
27013;SDS011;14556;52.222;4.510;2022-09-21T17:27:58;2.10;;;0.60;;
27013;SDS011;14556;52.222;4.510;2022-09-21T17:30:25;4.50;;;0.57;;
27013;SDS011;14556;52.222;4.510;2022-09-21T17:32:52;2.83;;;0.90;;
27013;SDS011;14556;52.222;4.510;2022-09-21T17:38:03;1.93;;;0.80;;
27013;SDS011;14556;52.222;4.510;2022-09-21T17:40:31;1.80;;;0.83;;
27013;SDS011;14556;52.222;4.510;2022-09-21T17:43:33;1.63;;;0.90;;
27013;SDS011;14556;52.222;4.510;2022-09-21T17:45:55;1.17;;;0.80;;
27013;SDS011;14556;52.222;4.510;2022-09-21T17:48:26;1.37;;;0.80;;
27013;SDS011;14556;52.222;4.510;2022-09-21T17:50:58;2.50;;;1.23;;
27013;SDS011;14556;52.222;4.510;2022-09-21T17:53:25;2.77;;;1.10;;
27013;SDS011;14556;52.222;4.510;2022-09-21T17:56:13;4.50;;;0.90;;
27013;SDS011;14556;52.222;4.510;2022-09-21T18:01:33;6.57;;;1.40;;